Terminal Aerodrome Forecast
Issued by NWS Wilmington, OH

Current Version | Previous Version | Text Only | Print | Product List | Glossary Off
Versions: 1 2 3 4 5 6 7 8 9 10 11 12 13 14 15 16 17 18 19 20 21 22

000
FTUS41 KILN 191100
TAFILN
TAF
KILN 191134Z 1912/2012 00000KT 1SM BR FEW040
      TEMPO 1912/1913 1/4SM FG VV005
     FM191300 VRB03KT 2SM BR FEW040
     FM191400 23005KT 5SM HZ SCT040
     FM191700 23008KT P6SM BKN040
     FM200300 23007KT P6SM VCTS BKN040CB
     FM200900 21005KT 4SM BR BKN040=

USA.gov is the U.S. government's official web portal to all federal, state and local government web resources and services.